首页
METAR-TAF:

METAR-TAF

机场 :

Fort Eustis, 弗吉尼亚州, 美国

Felker Army Airfield

纬度: 37-08N, 经度: 076-37W, 海拔: 4米

当前天气观测

该预报发布于40分钟前的13:56 UTC
风速7节,风向
温度 15°C
湿度 51%
气压 1029 hPa
能見度: 16.1公里
少量云层高于17000英尺

METAR: KFAF 221356Z AUTO 18007KT 10SM FEW170 15/05 A3040 RMK AO2 SLP298 T01520046 $

时间: 10:36 (14:36 UTC)

预报

该预报发布于19小时和12分钟前的19:24 UTC
预报有效从20日的 19点(UTC)到 21日的 24点(UTC)
风速9节,风向西北
能见度10公里或以上
少量云层高于2800英尺
成为
从 20日的 23点(UTC)到 20日的 24点(UTC)
风速9节,风向北转东北
能見度: 2310
少量云层高于4000英尺

TAF: KFAF 201924Z 2019/2124 32009KT 9999 FEW028 QNH3025INS BECMG 2023/2024 03009KT 9999 FEW040 QNH3034INS TX15/2019Z TN07/2117Z LAST NO AMDS AFT 2103 NEXT 2310

超过4000个机场的气象观测和天气预报(METAR&TAF报告)。

可查询的气象台以黄色和红色小点在地图上表示。

将鼠标移到小点上方,可查看气象台名称。

然后点击查看天气观测和预报。

如需切换地图:点击带黑十字的绿色按钮放大地图;点击带横线的绿色按钮缩小地图;或者点击绿色箭头查看邻近地区的地图。


METAR-TAF: